Time;durP1;ratioP1;P1;durP2;ratioP2;P2;SDS_P1;SDS_P2;PMS_P1;PMS_P2;Temp;Humidity;BMP_temperature;BMP_pressure;BME280_temperature;BME280_humidity;BME280_pressure;Samples;Min_cycle;Max_cycle;Signal;HPM_P1;HPM_P2
2023/09/12 04:06:23;;;;;;;;;14.67;13.33;;;;;;;;6471701;39;9013;-66
2023/09/12 04:12:27;;;;;;;;;16.33;14.33;;;;;;;;6490619;46;8881;-66
2023/09/12 04:18:29;;;;;;;;;16.00;16.00;;;;;;;;6490781;31;9625;-65
2023/09/12 04:24:34;;;;;;;;;16.33;16.00;;;;;;;;6491715;39;8916;-65
2023/09/12 04:30:37;;;;;;;;;20.00;17.33;;;;;;;;6490514;39;8966;-66
2023/09/12 04:36:39;;;;;;;;;20.67;17.00;;;;;;;;6489704;36;8820;-64
2023/09/12 04:42:42;;;;;;;;;21.00;19.67;;;;;;;;6488522;39;9028;-65
2023/09/12 04:48:45;;;;;;;;;24.33;20.67;;;;;;;;6489416;47;8852;-65
2023/09/12 04:54:48;;;;;;;;;25.67;23.33;;;;;;;;6490676;39;9522;-65
2023/09/12 05:00:51;;;;;;;;;27.00;21.00;;;;;;;;6491939;39;9018;-65
2023/09/12 05:06:56;;;;;;;;;15.00;12.33;;;;;;;;6492466;31;8884;-66
2023/09/12 05:12:59;;;;;;;;;14.00;14.00;;;;;;;;6494084;31;9624;-66
2023/09/12 05:19:03;;;;;;;;;17.33;15.67;;;;;;;;6491989;39;9016;-67
2023/09/12 05:25:08;;;;;;;;;23.00;19.67;;;;;;;;6492799;31;9543;-65
2023/09/12 05:31:12;;;;;;;;;14.00;14.00;;;;;;;;6493468;46;9086;-66
2023/09/12 05:37:14;;;;;;;;;15.67;13.67;;;;;;;;6491375;39;8921;-65
2023/09/12 05:43:18;;;;;;;;;17.00;13.67;;;;;;;;6493343;46;8865;-68
2023/09/12 05:49:22;;;;;;;;;16.67;15.67;;;;;;;;6491431;31;8879;-65
2023/09/12 05:55:24;;;;;;;;;21.33;20.00;;;;;;;;6482923;36;127556;-65
2023/09/12 06:01:27;;;;;;;;;25.00;23.67;;;;;;;;6492890;39;8946;-66
2023/09/12 06:07:32;;;;;;;;;19.33;18.00;;;;;;;;6492101;31;8853;-66
2023/09/12 06:13:37;;;;;;;;;21.33;20.33;;;;;;;;6492802;46;8957;-66
2023/09/12 06:19:40;;;;;;;;;19.33;18.33;;;;;;;;6491583;39;8861;-66
2023/09/12 06:25:51;;;;;;;;;22.00;21.00;;;;;;;;6490229;39;8866;-67
2023/09/12 06:31:56;;;;;;;;;19.00;19.00;;;;;;;;6488328;39;8825;-65
2023/09/12 06:38:00;;;;;;;;;14.67;14.33;;;;;;;;6488658;46;8890;-67
2023/09/12 06:44:05;;;;;;;;;19.00;17.33;;;;;;;;6491676;31;8936;-66
2023/09/12 06:50:10;;;;;;;;;19.33;17.00;;;;;;;;6491412;31;8878;-66
2023/09/12 06:56:18;;;;;;;;;31.67;30.00;;;;;;;;6491753;31;8990;-69
2023/09/12 07:02:21;;;;;;;;;25.00;21.33;;;;;;;;6489875;31;9111;-66
2023/09/12 07:08:25;;;;;;;;;40.67;35.67;;;;;;;;6490797;31;9079;-72
2023/09/12 07:14:31;;;;;;;;;47.00;38.33;;;;;;;;6491449;46;8806;-71
2023/09/12 07:20:37;;;;;;;;;24.33;21.00;;;;;;;;6490061;39;8897;-70
2023/09/12 07:26:40;;;;;;;;;19.75;18.00;;;;;;;;6484897;31;8882;-69
2023/09/12 07:32:43;;;;;;;;;19.75;18.25;;;;;;;;6485152;39;8815;-70
2023/09/12 07:38:58;;;;;;;;;55.00;44.67;;;;;;;;6484885;31;8878;-69
2023/09/12 07:45:06;;;;;;;;;23.50;21.25;;;;;;;;6488994;39;8827;-69
2023/09/12 07:51:17;;;;;;;;;19.00;16.50;;;;;;;;6488977;31;9065;-66
2023/09/12 07:57:23;;;;;;;;;17.75;17.75;;;;;;;;6487729;46;9005;-67
2023/09/12 08:03:27;;;;;;;;;21.75;19.50;;;;;;;;6487880;39;8942;-66
2023/09/12 08:09:55;;;;;;;;;11.25;11.25;;;;;;;;6487074;39;8894;-67
2023/09/12 08:15:59;;;;;;;;;14.00;14.00;;;;;;;;6485509;46;8834;-67
2023/09/12 08:22:19;;;;;;;;;15.00;14.25;;;;;;;;6486707;39;8914;-69
2023/09/12 08:28:26;;;;;;;;;18.50;18.50;;;;;;;;6487056;46;9383;-69
2023/09/12 08:34:46;;;;;;;;;14.00;11.75;;;;;;;;6488664;47;9083;-69
2023/09/12 08:40:54;;;;;;;;;14.00;12.00;;;;;;;;6487098;39;8873;-68
2023/09/12 08:47:05;;;;;;;;;24.75;22.00;;;;;;;;6488938;31;8827;-68
2023/09/12 09:00:38;;;;;;;;;52.67;43.00;;;;;;;;6485625;39;8899;-68
2023/09/12 09:07:36;;;;;;;;;14.25;11.25;;;;;;;;6487243;39;8898;-70
2023/09/12 09:14:29;;;;;;;;;12.00;12.00;;;;;;;;6487068;31;8958;-69
2023/09/12 09:21:19;;;;;;;;;13.50;13.50;;;;;;;;6486684;39;8906;-73
2023/09/12 09:28:27;;;;;;;;;18.25;16.25;;;;;;;;6488599;31;9543;-68
2023/09/12 09:41:58;;;;;;;;;43.50;36.75;;;;;;;;6489234;39;9032;-73
2023/09/12 09:48:48;;;;;;;;;15.50;15.50;;;;;;;;6487691;31;8874;-70
2023/09/12 09:56:19;;;;;;;;;46.25;39.00;;;;;;;;6489039;46;8873;-70
2023/09/12 10:02:25;;;;;;;;;20.00;18.25;;;;;;;;6488278;39;8934;-71
2023/09/12 10:15:55;;;;;;;;;17.50;17.50;;;;;;;;6488540;31;8885;-73
2023/09/12 10:23:37;;;;;;;;;16.50;16.50;;;;;;;;6488045;46;9059;-69
2023/09/12 10:30:14;;;;;;;;;18.75;15.75;;;;;;;;6487716;39;9155;-70
2023/09/12 10:36:41;;;;;;;;;25.75;24.75;;;;;;;;6486597;35;8987;-70
2023/09/12 10:43:21;;;;;;;;;21.25;21.25;;;;;;;;6487392;46;8908;-69
2023/09/12 10:49:24;;;;;;;;;27.00;25.75;;;;;;;;6488861;39;9633;-70
2023/09/12 10:55:43;;;;;;;;;22.00;19.25;;;;;;;;6486350;39;8882;-69
2023/09/12 11:01:49;;;;;;;;;18.50;17.50;;;;;;;;6488129;31;8905;-68
2023/09/12 11:08:04;;;;;;;;;17.75;16.75;;;;;;;;6488079;46;8867;-69
2023/09/12 11:14:18;;;;;;;;;18.50;16.75;;;;;;;;6487411;39;8874;-68
2023/09/12 11:20:24;;;;;;;;;22.50;17.75;;;;;;;;6479890;46;8880;-69
2023/09/12 11:26:28;;;;;;;;;17.25;17.25;;;;;;;;6487535;31;9025;-67
2023/09/12 11:32:38;;;;;;;;;26.25;19.00;;;;;;;;6489533;39;8863;-69
2023/09/12 11:38:49;;;;;;;;;15.50;15.50;;;;;;;;6490176;39;9623;-69
2023/09/12 11:44:58;;;;;;;;;15.00;14.25;;;;;;;;6487642;31;9008;-70
2023/09/12 11:51:07;;;;;;;;;20.00;17.75;;;;;;;;6489401;46;8996;-68
2023/09/12 11:57:14;;;;;;;;;18.50;18.50;;;;;;;;6497161;36;8901;-68
2023/09/12 12:03:26;;;;;;;;;12.75;12.75;;;;;;;;6488792;47;9021;-69
2023/09/12 12:09:34;;;;;;;;;19.25;19.00;;;;;;;;6491049;39;9646;-63
2023/09/12 12:15:38;;;;;;;;;19.75;17.25;;;;;;;;6491652;39;9592;-66
2023/09/12 12:21:43;;;;;;;;;18.75;17.00;;;;;;;;6487704;46;8869;-66
2023/09/12 12:27:46;;;;;;;;;21.25;18.50;;;;;;;;6488756;39;8887;-66
2023/09/12 12:33:49;;;;;;;;;17.50;16.50;;;;;;;;6490197;39;9564;-65
2023/09/12 12:40:15;;;;;;;;;15.00;15.00;;;;;;;;6487124;39;8884;-65
2023/09/12 12:46:19;;;;;;;;;18.00;17.00;;;;;;;;6488578;47;8929;-67
2023/09/12 12:52:25;;;;;;;;;17.25;17.25;;;;;;;;6486457;31;8999;-66
2023/09/12 12:58:30;;;;;;;;;21.25;19.00;;;;;;;;6488735;39;8858;-66
2023/09/12 13:04:39;;;;;;;;;28.50;25.50;;;;;;;;6487301;39;8884;-66
2023/09/12 13:10:43;;;;;;;;;22.25;19.75;;;;;;;;6487364;47;8913;-67
2023/09/12 13:16:47;;;;;;;;;21.75;20.00;;;;;;;;6489282;39;9503;-66
2023/09/12 13:22:50;;;;;;;;;15.75;14.50;;;;;;;;6489030;39;8992;-65
2023/09/12 13:28:52;;;;;;;;;15.00;15.00;;;;;;;;6489326;39;8886;-64
2023/09/12 13:34:55;;;;;;;;;18.75;17.50;;;;;;;;6486849;39;8877;-65
2023/09/12 13:40:59;;;;;;;;;16.00;14.50;;;;;;;;6487842;46;8900;-65
2023/09/12 13:47:04;;;;;;;;;16.00;15.25;;;;;;;;6489704;46;9009;-63
2023/09/12 13:53:08;;;;;;;;;15.75;15.75;;;;;;;;6488012;31;8883;-65
2023/09/12 13:59:11;;;;;;;;;18.00;15.00;;;;;;;;6489231;46;8882;-66
2023/09/12 14:05:14;;;;;;;;;14.50;14.50;;;;;;;;6488563;46;9046;-65
2023/09/12 14:11:17;;;;;;;;;19.25;18.00;;;;;;;;6486743;39;8933;-66
2023/09/12 14:17:35;;;;;;;;;15.50;15.00;;;;;;;;6488695;39;8879;-65
2023/09/12 14:23:40;;;;;;;;;21.75;17.50;;;;;;;;6487961;46;8963;-64
2023/09/12 14:29:48;;;;;;;;;17.00;15.25;;;;;;;;6489021;46;8867;-66
2023/09/12 14:35:50;;;;;;;;;16.25;14.50;;;;;;;;6486423;46;8902;-65
2023/09/12 14:41:54;;;;;;;;;24.50;23.00;;;;;;;;6486333;46;8916;-65
2023/09/12 14:47:57;;;;;;;;;19.00;17.25;;;;;;;;6488515;39;8885;-65
2023/09/12 14:54:01;;;;;;;;;16.50;15.75;;;;;;;;6489246;39;8891;-65
2023/09/12 15:00:05;;;;;;;;;17.50;16.75;;;;;;;;6489142;31;8853;-66
2023/09/12 15:06:07;;;;;;;;;13.75;13.75;;;;;;;;6487973;31;8919;-65
2023/09/12 15:12:09;;;;;;;;;16.75;14.75;;;;;;;;6489240;39;9556;-65
2023/09/12 15:18:12;;;;;;;;;15.50;14.50;;;;;;;;6488788;39;9539;-65
2023/09/12 15:24:15;;;;;;;;;14.75;14.75;;;;;;;;6488423;39;8917;-66
2023/09/12 15:30:17;;;;;;;;;19.75;18.00;;;;;;;;6489162;46;8856;-64
2023/09/12 15:36:20;;;;;;;;;21.25;19.50;;;;;;;;6487519;31;8885;-65
2023/09/12 15:42:22;;;;;;;;;20.25;19.25;;;;;;;;6488625;46;8871;-65
2023/09/12 15:48:37;;;;;;;;;20.25;20.25;;;;;;;;6492526;31;9081;-66
2023/09/12 15:54:40;;;;;;;;;24.00;19.75;;;;;;;;6489805;39;8954;-67
2023/09/12 16:00:43;;;;;;;;;18.60;17.60;;;;;;;;6319710;36;10000228;-59
2023/09/12 16:06:47;;;;;;;;;24.00;23.50;;;;;;;;6489892;39;8956;-59
2023/09/12 16:12:49;;;;;;;;;41.25;35.50;;;;;;;;6491365;31;9009;-59
